createdAt,value
2023-04-06T00:01:09.976Z,64.45
2023-04-06T00:03:37.364Z,64.35
2023-04-06T00:06:05.304Z,64.58
2023-04-06T00:08:32.078Z,65.36
2023-04-06T00:10:58.993Z,65.16
2023-04-06T00:13:26.521Z,65.13
2023-04-06T00:15:54.067Z,64.46
2023-04-06T00:18:22.072Z,64.44
2023-04-06T00:20:49.083Z,64.72
2023-04-06T00:23:16.789Z,65.53
2023-04-06T00:25:43.688Z,64.99
2023-04-06T00:28:10.694Z,64.18
2023-04-06T00:30:37.737Z,63.78
2023-04-06T00:33:04.757Z,64.51
2023-04-06T00:35:32.081Z,63.09
2023-04-06T00:37:59.318Z,62.77
2023-04-06T00:40:26.374Z,62.60
2023-04-06T00:42:53.331Z,62.86
2023-04-06T00:45:20.721Z,62.76
2023-04-06T00:47:47.723Z,62.05
2023-04-06T00:50:14.736Z,62.88
2023-04-06T00:52:41.923Z,64.19
2023-04-06T00:55:09.226Z,64.14
2023-04-06T00:57:36.939Z,64.41
2023-04-06T01:00:08.047Z,64.38
2023-04-06T01:02:34.921Z,64.44
2023-04-06T01:05:02.905Z,63.99
2023-04-06T01:07:30.263Z,64.62
2023-04-06T01:09:57.196Z,63.79
2023-04-06T01:12:24.033Z,63.88
2023-04-06T01:14:51.944Z,63.65
2023-04-06T01:17:18.863Z,64.18
2023-04-06T01:19:46.471Z,64.29
2023-04-06T01:22:18.631Z,63.30
2023-04-06T01:24:46.393Z,64.35
2023-04-06T01:27:14.159Z,63.87
2023-04-06T01:29:44.505Z,64.58
2023-04-06T01:32:11.953Z,63.19
2023-04-06T01:34:38.783Z,64.03
2023-04-06T01:37:05.891Z,64.78
2023-04-06T01:39:32.691Z,65.11
2023-04-06T01:41:59.763Z,64.77
2023-04-06T01:44:26.936Z,64.27
2023-04-06T01:46:53.804Z,64.00
2023-04-06T01:49:20.866Z,64.69
2023-04-06T01:51:48.089Z,65.25
2023-04-06T01:54:16.137Z,64.92
2023-04-06T01:56:43.159Z,64.53
2023-04-06T01:59:10.519Z,64.97
2023-04-06T02:01:37.614Z,65.68
2023-04-06T02:04:04.746Z,65.41
2023-04-06T02:06:32.457Z,64.85
2023-04-06T02:08:59.285Z,64.75
2023-04-06T02:11:26.261Z,64.82
2023-04-06T02:14:02.492Z,65.16
2023-04-06T02:16:29.456Z,64.69
2023-04-06T02:18:56.777Z,64.54
2023-04-06T02:21:23.846Z,64.87
2023-04-06T02:23:50.838Z,63.69
2023-04-06T02:26:19.084Z,64.51
2023-04-06T02:28:50.365Z,63.85
2023-04-06T02:31:17.377Z,64.38
2023-04-06T02:33:44.506Z,65.20
2023-04-06T02:36:11.779Z,65.05
2023-04-06T02:38:38.714Z,64.84
2023-04-06T02:41:05.967Z,64.15
2023-04-06T02:43:34.463Z,63.64
2023-04-06T02:46:01.510Z,63.55
2023-04-06T02:48:29.119Z,63.20
2023-04-06T02:50:57.277Z,63.28
2023-04-06T02:53:24.236Z,63.38
2023-04-06T02:55:51.362Z,63.56
2023-04-06T02:58:18.636Z,64.02
2023-04-06T03:00:45.793Z,63.56
2023-04-06T03:03:12.966Z,63.01
2023-04-06T03:05:40.229Z,64.31
2023-04-06T03:08:07.212Z,64.04
2023-04-06T03:10:36.709Z,63.48
2023-04-06T03:13:03.999Z,64.07
2023-04-06T03:15:30.908Z,64.08
2023-04-06T03:18:00.460Z,65.16
2023-04-06T03:20:27.779Z,65.17
2023-04-06T03:22:54.809Z,65.38
2023-04-06T03:25:21.785Z,65.01
2023-04-06T03:27:48.900Z,64.46
2023-04-06T03:30:18.127Z,63.85
2023-04-06T03:32:48.305Z,63.38
2023-04-06T03:35:15.833Z,63.80
2023-04-06T03:37:42.941Z,62.98
2023-04-06T03:40:10.450Z,63.70
2023-04-06T03:42:37.527Z,64.51
2023-04-06T03:45:05.086Z,64.69
2023-04-06T03:47:35.163Z,64.78
2023-04-06T03:50:02.239Z,64.20
2023-04-06T03:52:29.292Z,64.18
2023-04-06T03:54:56.335Z,64.29
2023-04-06T03:57:24.907Z,64.61
2023-04-06T03:59:52.029Z,64.58
2023-04-06T04:02:22.099Z,65.17
2023-04-06T04:04:49.034Z,64.71
2023-04-06T04:07:15.829Z,64.92
2023-04-06T04:09:42.694Z,65.68
2023-04-06T04:12:09.551Z,64.45
2023-04-06T04:14:36.553Z,64.79
2023-04-06T04:17:03.392Z,65.16
2023-04-06T04:19:30.366Z,64.84
2023-04-06T04:21:57.270Z,64.13
2023-04-06T04:24:24.071Z,63.82
2023-04-06T04:26:51.442Z,63.30
2023-04-06T04:29:21.090Z,62.67
2023-04-06T04:31:48.521Z,64.30
2023-04-06T04:34:16.645Z,64.44
2023-04-06T04:36:44.881Z,64.26
2023-04-06T04:39:11.624Z,63.97
2023-04-06T04:41:40.090Z,64.63
2023-04-06T04:44:06.875Z,64.32
2023-04-06T04:46:39.806Z,64.70
2023-04-06T04:49:07.461Z,63.71
2023-04-06T04:51:37.832Z,63.95
2023-04-06T04:54:07.325Z,64.50
2023-04-06T04:56:34.438Z,63.66
2023-04-06T04:59:01.200Z,65.00
2023-04-06T05:01:35.751Z,81.11
2023-04-06T05:04:10.680Z,73.29
2023-04-06T05:06:37.939Z,64.73
2023-04-06T05:09:04.982Z,64.70
2023-04-06T05:11:32.276Z,64.66
2023-04-06T05:14:01.299Z,64.10
2023-04-06T05:16:28.754Z,65.07
2023-04-06T05:18:57.902Z,64.96
2023-04-06T05:21:26.084Z,65.77
2023-04-06T05:23:55.214Z,65.80
2023-04-06T05:26:22.626Z,65.69
2023-04-06T05:28:49.816Z,65.27
2023-04-06T05:31:17.441Z,65.70
2023-04-06T05:33:44.670Z,64.82
2023-04-06T05:36:14.382Z,64.41
2023-04-06T05:38:41.980Z,63.91
2023-04-06T05:41:09.041Z,63.18
2023-04-06T05:43:36.068Z,61.93
2023-04-06T05:46:03.353Z,62.69
2023-04-06T05:48:30.373Z,61.44
2023-04-06T05:50:57.553Z,60.91
2023-04-06T05:53:27.556Z,61.45
2023-04-06T05:55:54.519Z,61.29
2023-04-06T05:58:21.949Z,60.67
2023-04-06T06:00:48.834Z,59.77
2023-04-06T06:03:16.764Z,59.81
2023-04-06T06:05:43.900Z,59.15
2023-04-06T06:08:11.365Z,60.88
2023-04-06T06:10:40.370Z,60.04
2023-04-06T06:13:07.507Z,60.07
2023-04-06T06:15:34.486Z,59.61
2023-04-06T06:18:02.192Z,58.01
2023-04-06T06:20:29.713Z,57.58
2023-04-06T06:23:07.221Z,58.25
2023-04-06T06:25:36.937Z,58.45
2023-04-06T06:28:03.930Z,57.07
2023-04-06T06:30:31.244Z,57.24
2023-04-06T06:35:39.340Z,56.36
2023-04-06T06:38:16.328Z,54.36
2023-04-06T06:40:42.995Z,53.79
2023-04-06T06:43:12.762Z,54.65
2023-04-06T06:45:42.976Z,53.43
2023-04-06T06:48:10.155Z,52.12
2023-04-06T06:50:37.510Z,51.61
2023-04-06T06:53:05.200Z,51.77
2023-04-06T06:55:32.196Z,51.06
2023-04-06T06:57:59.114Z,49.70
2023-04-06T07:00:26.072Z,51.37
2023-04-06T07:03:01.964Z,50.22
2023-04-06T07:05:29.544Z,49.25
2023-04-06T07:07:57.268Z,49.68
2023-04-06T07:10:24.321Z,48.19
2023-04-06T07:12:51.680Z,47.94
2023-04-06T07:15:19.211Z,48.03
2023-04-06T07:17:46.534Z,47.21
2023-04-06T07:20:14.482Z,45.90
2023-04-06T07:22:44.111Z,45.91
2023-04-06T07:25:11.133Z,48.12
2023-04-06T07:27:38.817Z,48.25
2023-04-06T07:30:06.892Z,48.83
2023-04-06T07:32:35.897Z,47.76
2023-04-06T07:35:03.331Z,45.65
2023-04-06T07:37:30.302Z,46.59
2023-04-06T07:39:57.244Z,46.08
2023-04-06T07:42:24.149Z,47.07
2023-04-06T07:44:51.188Z,47.38
2023-04-06T07:47:18.141Z,48.25
2023-04-06T07:49:45.238Z,47.49
2023-04-06T07:52:12.492Z,47.00
2023-04-06T07:54:39.378Z,47.29
2023-04-06T07:57:08.744Z,46.93
2023-04-06T08:02:18.878Z,45.35
2023-04-06T08:04:48.408Z,45.80
2023-04-06T08:07:15.454Z,45.62
2023-04-06T08:09:42.552Z,45.29
2023-04-06T08:12:09.526Z,43.92
2023-04-06T08:14:36.390Z,44.04
2023-04-06T08:17:05.174Z,44.68
2023-04-06T08:19:33.188Z,44.66
2023-04-06T08:22:00.150Z,43.13
2023-04-06T08:24:27.424Z,42.57
2023-04-06T08:26:54.572Z,45.20
2023-04-06T08:29:21.591Z,45.70
2023-04-06T08:31:48.663Z,43.34
2023-04-06T08:34:16.495Z,44.27
2023-04-06T08:36:43.443Z,43.34
2023-04-06T08:39:10.708Z,44.80
2023-04-06T08:41:37.728Z,44.81
2023-04-06T08:44:06.107Z,44.35
2023-04-06T08:46:33.297Z,45.29
2023-04-06T08:49:04.212Z,44.09
2023-04-06T08:51:31.865Z,44.10
2023-04-06T08:54:02.190Z,43.94
2023-04-06T08:56:30.098Z,41.82
2023-04-06T08:58:57.480Z,44.44
2023-04-06T09:01:29.399Z,43.06
2023-04-06T09:04:08.714Z,44.38
2023-04-06T09:06:38.754Z,43.45
2023-04-06T09:09:05.734Z,43.33
2023-04-06T09:11:44.772Z,43.87
2023-04-06T09:14:11.840Z,44.15
2023-04-06T09:16:43.595Z,43.10
2023-04-06T09:19:11.617Z,44.01
2023-04-06T09:21:40.860Z,44.12
2023-04-06T09:24:11.324Z,43.36
2023-04-06T09:26:49.002Z,42.11
2023-04-06T09:29:29.504Z,42.11
2023-04-06T09:32:11.931Z,42.96
2023-04-06T09:34:41.964Z,42.49
2023-04-06T09:37:16.827Z,43.48
2023-04-06T09:39:44.014Z,42.96
2023-04-06T09:42:11.582Z,41.92
2023-04-06T09:44:38.941Z,42.75
2023-04-06T09:47:09.330Z,42.37
2023-04-06T09:49:36.673Z,44.74
2023-04-06T09:52:09.840Z,43.74
2023-04-06T09:54:37.489Z,44.10
2023-04-06T09:57:43.099Z,43.12
2023-04-06T10:00:12.911Z,42.21
2023-04-06T10:03:05.199Z,44.07
2023-04-06T10:05:46.256Z,42.66
2023-04-06T10:08:15.039Z,43.84
2023-04-06T10:10:43.912Z,42.96
2023-04-06T10:13:12.690Z,43.99
2023-04-06T10:15:41.090Z,45.19
2023-04-06T10:18:11.239Z,43.80
2023-04-06T10:21:13.702Z,43.70
2023-04-06T10:23:45.429Z,42.32
2023-04-06T10:26:17.831Z,43.35
2023-04-06T10:28:46.832Z,42.03
2023-04-06T10:31:14.202Z,43.34
2023-04-06T10:33:42.829Z,43.80
2023-04-06T10:36:22.539Z,43.57
2023-04-06T10:38:59.092Z,44.17
2023-04-06T10:41:35.646Z,42.58
2023-04-06T10:44:03.349Z,43.01
2023-04-06T10:46:34.344Z,42.74
2023-04-06T10:49:14.149Z,44.35
2023-04-06T10:51:41.270Z,43.63
2023-04-06T10:54:14.896Z,41.62
2023-04-06T10:56:42.226Z,41.61
2023-04-06T10:59:09.364Z,43.21
2023-04-06T11:01:36.813Z,43.65
2023-04-06T11:04:04.529Z,44.40
2023-04-06T11:06:35.053Z,43.46
2023-04-06T11:09:02.733Z,43.90
2023-04-06T11:11:30.376Z,43.95
2023-04-06T11:14:02.083Z,43.61
2023-04-06T11:16:31.444Z,42.60
2023-04-06T11:19:00.873Z,43.11
2023-04-06T11:21:41.046Z,42.82
2023-04-06T11:24:23.873Z,43.37
2023-04-06T11:26:53.224Z,43.83
2023-04-06T11:29:24.308Z,43.85
2023-04-06T11:31:53.355Z,43.77
2023-04-06T11:34:22.839Z,42.98
2023-04-06T11:36:55.639Z,41.00
2023-04-06T11:39:25.216Z,41.14
2023-04-06T11:41:53.953Z,41.26
2023-04-06T11:44:35.396Z,42.97
2023-04-06T11:47:08.686Z,42.79
2023-04-06T11:49:39.269Z,42.76
2023-04-06T11:52:22.977Z,43.78
2023-04-06T11:54:52.338Z,42.46
2023-04-06T11:57:24.205Z,43.50
2023-04-06T11:59:53.611Z,42.76
2023-04-06T12:02:21.828Z,42.22
2023-04-06T12:04:48.996Z,42.75
2023-04-06T12:07:15.820Z,43.62
2023-04-06T12:09:45.954Z,43.72
2023-04-06T12:12:13.215Z,42.82
2023-04-06T12:14:40.114Z,44.45
2023-04-06T12:17:07.682Z,43.57
2023-04-06T12:19:38.377Z,43.57
2023-04-06T12:22:08.887Z,43.80
2023-04-06T12:24:36.268Z,42.74
2023-04-06T12:27:10.261Z,42.35
2023-04-06T12:29:38.897Z,43.72
2023-04-06T12:32:07.237Z,43.32
2023-04-06T12:34:34.879Z,42.97
2023-04-06T12:37:02.676Z,43.42
2023-04-06T12:39:29.833Z,42.59
2023-04-06T12:41:57.579Z,44.39
2023-04-06T12:44:25.590Z,43.51
2023-04-06T12:46:53.862Z,43.23
2023-04-06T12:49:23.842Z,42.52
2023-04-06T12:51:51.359Z,45.04
2023-04-06T12:54:18.288Z,43.91
2023-04-06T12:56:45.533Z,44.10
2023-04-06T12:59:12.755Z,44.49
2023-04-06T13:01:39.712Z,44.67
2023-04-06T13:04:07.378Z,45.63
2023-04-06T13:06:34.662Z,44.80
2023-04-06T13:09:01.811Z,46.03
2023-04-06T13:11:29.023Z,45.93
2023-04-06T13:13:59.219Z,45.65
2023-04-06T13:16:26.555Z,43.99
2023-04-06T13:18:53.678Z,44.73
2023-04-06T13:21:22.008Z,44.31
2023-04-06T13:23:49.006Z,45.31
2023-04-06T13:26:17.933Z,44.66
2023-04-06T13:28:45.197Z,45.20
2023-04-06T13:31:12.355Z,44.93
2023-04-06T13:33:39.833Z,45.68
2023-04-06T13:36:10.337Z,44.99
2023-04-06T13:38:40.051Z,46.40
2023-04-06T13:41:07.193Z,45.72
2023-04-06T13:43:34.632Z,46.14
2023-04-06T13:46:02.400Z,45.27
2023-04-06T13:48:31.795Z,45.08
2023-04-06T13:50:59.055Z,45.08
2023-04-06T13:53:25.763Z,45.53
2023-04-06T13:55:56.751Z,44.20
2023-04-06T13:58:24.494Z,44.38
2023-04-06T14:00:51.954Z,44.96
2023-04-06T14:03:19.484Z,44.55
2023-04-06T14:05:47.173Z,44.52
2023-04-06T14:08:14.354Z,44.64
2023-04-06T14:10:42.232Z,44.65
2023-04-06T14:13:09.895Z,44.92
2023-04-06T14:15:36.785Z,45.48
2023-04-06T14:18:04.063Z,45.11
2023-04-06T14:20:33.996Z,45.43
2023-04-06T14:23:05.420Z,45.49
2023-04-06T14:25:34.834Z,44.87
2023-04-06T14:28:02.807Z,44.87
2023-04-06T14:30:31.806Z,44.66
2023-04-06T14:32:59.542Z,45.44
2023-04-06T14:38:18.616Z,45.23
2023-04-06T14:40:46.506Z,45.18
2023-04-06T14:43:13.475Z,45.09
2023-04-06T14:45:41.257Z,46.13
2023-04-06T14:48:08.327Z,45.05
2023-04-06T14:50:37.611Z,44.97
2023-04-06T14:53:05.099Z,45.62
2023-04-06T14:55:33.335Z,45.86
2023-04-06T14:58:01.353Z,44.72
2023-04-06T15:00:29.150Z,45.53
2023-04-06T15:02:56.358Z,45.17
2023-04-06T15:05:25.345Z,45.87
2023-04-06T15:07:52.817Z,46.77
2023-04-06T15:10:20.125Z,45.20
2023-04-06T15:12:47.220Z,45.99
2023-04-06T15:17:57.501Z,46.04
2023-04-06T15:23:00.465Z,46.49
2023-04-06T15:28:12.846Z,46.14
2023-04-06T15:30:42.718Z,45.88
2023-04-06T15:33:09.794Z,45.96
2023-04-06T15:35:48.102Z,45.65
2023-04-06T15:38:17.626Z,45.78
2023-04-06T15:40:51.607Z,46.23
2023-04-06T15:43:18.550Z,45.88
2023-04-06T15:45:45.616Z,46.35
2023-04-06T15:48:15.852Z,46.29
2023-04-06T15:51:24.894Z,46.97
2023-04-06T15:54:00.182Z,46.74
2023-04-06T15:56:27.237Z,46.66
2023-04-06T15:58:54.121Z,46.24
2023-04-06T16:01:21.489Z,46.41
2023-04-06T16:03:48.557Z,46.65
2023-04-06T16:06:39.216Z,46.89
2023-04-06T16:09:06.290Z,46.78
2023-04-06T16:11:37.320Z,46.53
2023-04-06T16:14:04.478Z,46.37
2023-04-06T16:16:31.511Z,46.85
2023-04-06T16:19:11.519Z,46.45
2023-04-06T16:21:48.874Z,46.23
2023-04-06T16:25:14.041Z,46.39
2023-04-06T16:27:41.051Z,46.13
2023-04-06T16:30:09.335Z,45.62
2023-04-06T16:32:52.436Z,46.56
2023-04-06T16:35:23.534Z,46.83
2023-04-06T16:37:54.235Z,46.26
2023-04-06T16:40:21.477Z,46.63
2023-04-06T16:42:48.623Z,46.14
2023-04-06T16:45:17.669Z,46.98
2023-04-06T16:47:49.221Z,46.70
2023-04-06T16:50:27.679Z,47.70
2023-04-06T16:53:01.369Z,47.28
2023-04-06T16:55:34.153Z,47.29
2023-04-06T16:58:02.116Z,46.49
2023-04-06T17:00:32.068Z,47.23
2023-04-06T17:02:59.598Z,46.37
2023-04-06T17:05:27.806Z,47.07
2023-04-06T17:07:54.982Z,47.41
2023-04-06T17:10:34.207Z,47.41
2023-04-06T17:13:37.785Z,46.82
2023-04-06T17:16:05.440Z,46.83
2023-04-06T17:18:32.645Z,47.36
2023-04-06T17:21:18.625Z,47.66
2023-04-06T17:23:55.173Z,48.11
2023-04-06T17:26:28.623Z,47.14
2023-04-06T17:28:55.586Z,47.28
2023-04-06T17:31:22.976Z,47.46
2023-04-06T17:33:53.620Z,47.38
2023-04-06T17:36:21.340Z,47.45
2023-04-06T17:38:48.895Z,47.13
2023-04-06T17:41:16.575Z,47.35
2023-04-06T17:43:54.461Z,47.59
2023-04-06T17:46:21.922Z,47.82
2023-04-06T17:48:49.551Z,48.16
2023-04-06T17:51:19.781Z,48.39
2023-04-06T17:53:51.065Z,48.74
2023-04-06T17:56:18.418Z,48.22
2023-04-06T18:01:19.870Z,48.70
2023-04-06T18:03:48.098Z,48.93
2023-04-06T18:06:17.206Z,48.31
2023-04-06T18:08:47.431Z,48.04
2023-04-06T18:14:11.207Z,47.40
2023-04-06T18:16:41.454Z,47.99
2023-04-06T18:19:08.386Z,48.24
2023-04-06T18:21:41.697Z,47.87
2023-04-06T18:24:12.342Z,48.26
2023-04-06T18:26:42.202Z,47.96
2023-04-06T18:29:10.122Z,47.75
2023-04-06T18:31:39.827Z,48.46
2023-04-06T18:34:06.566Z,48.20
2023-04-06T18:36:33.819Z,47.82
2023-04-06T18:39:00.608Z,47.83
2023-04-06T18:41:27.882Z,48.41
2023-04-06T18:43:55.051Z,48.85
2023-04-06T18:46:22.686Z,48.51
2023-04-06T18:48:49.646Z,48.48
2023-04-06T18:51:16.988Z,48.75
2023-04-06T18:53:43.913Z,47.84
2023-04-06T18:56:19.562Z,48.66
2023-04-06T18:58:48.602Z,48.67
2023-04-06T19:01:28.459Z,48.13
2023-04-06T19:03:56.907Z,48.69
2023-04-06T19:06:24.720Z,48.96
2023-04-06T19:08:55.449Z,48.70
2023-04-06T19:11:26.297Z,49.61
2023-04-06T19:13:57.439Z,48.93
2023-04-06T19:16:26.727Z,49.03
2023-04-06T19:18:53.784Z,49.40
2023-04-06T19:21:23.554Z,49.00
2023-04-06T19:24:15.503Z,49.35
2023-04-06T19:26:43.402Z,48.68
2023-04-06T19:29:10.887Z,48.96
2023-04-06T19:31:38.231Z,48.82
2023-04-06T19:34:05.290Z,48.44
2023-04-06T19:36:33.523Z,49.03
2023-04-06T19:39:01.903Z,49.50
2023-04-06T19:44:15.779Z,49.65
2023-04-06T19:46:44.139Z,49.65
2023-04-06T19:49:11.165Z,50.21
2023-04-06T19:54:21.344Z,49.61
2023-04-06T19:56:48.506Z,50.19
2023-04-06T19:59:15.595Z,49.70
2023-04-06T20:01:42.935Z,49.78
2023-04-06T20:04:10.194Z,49.53
2023-04-06T20:06:37.128Z,49.50
2023-04-06T20:09:23.568Z,48.42
2023-04-06T20:11:50.442Z,48.24
2023-04-06T20:14:23.212Z,48.78
2023-04-06T20:16:51.930Z,48.46
2023-04-06T20:19:19.336Z,48.50
2023-04-06T20:21:47.072Z,47.80
2023-04-06T20:24:14.600Z,47.80
2023-04-06T20:26:41.804Z,47.62
2023-04-06T20:29:08.912Z,48.06
2023-04-06T20:31:45.452Z,47.67
2023-04-06T20:34:13.241Z,47.72
2023-04-06T20:36:40.766Z,48.05
2023-04-06T20:39:07.860Z,47.67
2023-04-06T20:41:35.272Z,47.98
2023-04-06T20:44:05.747Z,47.59
2023-04-06T20:46:34.375Z,47.07
2023-04-06T20:49:01.790Z,46.27
2023-04-06T20:51:30.158Z,46.54
2023-04-06T20:54:00.684Z,45.65
2023-04-06T20:56:27.694Z,46.11
2023-04-06T20:58:57.566Z,46.03
2023-04-06T21:01:29.474Z,46.33
2023-04-06T21:03:58.453Z,46.21
2023-04-06T21:11:49.473Z,45.24
2023-04-06T21:14:20.584Z,44.37
2023-04-06T21:16:48.108Z,45.35
2023-04-06T21:19:15.975Z,45.23
2023-04-06T21:21:42.742Z,44.70
2023-04-06T21:24:09.863Z,44.99
2023-04-06T21:26:37.298Z,44.77
2023-04-06T21:29:07.248Z,45.38
2023-04-06T21:31:42.433Z,46.18
2023-04-06T21:34:13.533Z,46.14
2023-04-06T21:36:41.883Z,46.83
2023-04-06T21:39:09.888Z,47.84
2023-04-06T21:41:37.019Z,48.90
2023-04-06T21:44:06.950Z,48.40
2023-04-06T21:46:34.172Z,48.70
2023-04-06T21:49:01.339Z,48.28
2023-04-06T21:51:28.275Z,48.22
2023-04-06T21:53:56.582Z,48.76
2023-04-06T21:56:24.975Z,48.97
2023-04-06T21:58:52.478Z,49.29
2023-04-06T22:01:22.181Z,48.92
2023-04-06T22:03:53.495Z,48.82
2023-04-06T22:06:39.232Z,49.42
2023-04-06T22:09:06.471Z,48.94
2023-04-06T22:11:33.596Z,49.62
2023-04-06T22:14:01.110Z,49.77
2023-04-06T22:16:28.553Z,49.16
2023-04-06T22:18:55.462Z,49.12
2023-04-06T22:21:24.733Z,49.65
2023-04-06T22:23:51.990Z,49.60
2023-04-06T22:26:19.306Z,49.35
2023-04-06T22:28:46.417Z,48.68
2023-04-06T22:31:13.506Z,48.96
2023-04-06T22:33:43.073Z,49.02
2023-04-06T22:36:10.170Z,49.46
2023-04-06T22:38:37.475Z,49.32
2023-04-06T22:41:08.054Z,49.85
2023-04-06T22:43:35.982Z,49.51
2023-04-06T22:46:02.761Z,49.12
2023-04-06T22:48:29.533Z,49.36
2023-04-06T22:50:56.672Z,49.91
2023-04-06T22:53:23.577Z,50.29
2023-04-06T22:55:50.663Z,50.03
2023-04-06T22:58:17.770Z,49.98
2023-04-06T23:00:44.765Z,49.70
2023-04-06T23:03:12.102Z,49.67
2023-04-06T23:05:40.920Z,49.54
2023-04-06T23:08:07.871Z,48.77
2023-04-06T23:10:34.793Z,48.97
2023-04-06T23:13:01.913Z,48.84
2023-04-06T23:15:29.111Z,48.90
2023-04-06T23:17:56.487Z,48.99
2023-04-06T23:20:23.706Z,48.77
2023-04-06T23:22:50.708Z,49.14
2023-04-06T23:25:17.823Z,48.85
2023-04-06T23:27:44.903Z,48.29
2023-04-06T23:30:11.958Z,49.14
2023-04-06T23:32:39.249Z,48.79
2023-04-06T23:35:07.099Z,48.49
2023-04-06T23:37:33.931Z,48.45
2023-04-06T23:40:02.129Z,48.95
2023-04-06T23:42:29.485Z,48.89
2023-04-06T23:44:56.605Z,48.87
2023-04-06T23:47:23.591Z,48.25
2023-04-06T23:49:52.332Z,49.01
2023-04-06T23:52:19.166Z,48.51
2023-04-06T23:54:46.186Z,48.64
2023-04-06T23:57:13.130Z,49.10
2023-04-06T23:59:40.260Z,48.96
